Rechercher aéroport 
image banner adimage banner adimage banner ad
image banner ad

1Q1 - Eckert Field

Situé à Strathmore, United States

ICAO - 1Q1, IATA -

Données fournies par Airmate  

Information générale

Coordonnées: N36°9'45" W119°3'2"
Élévation : 426 feet MSL.
Variation magnétique : 15° East
Voir autres Aéroports à California

Données opérationnelles

Special qualification required
Heure actuelle UTC:
Heure actuelle locale:
Météo à : KPTV - Porterville Muni ( 15 km )
METAR: KPTV 300056Z AUTO 32009KT 10SM CLR 39/14 A2978 RMK AO2 SLP081 T03890144
Voir NOTAMs / SUP AIP / TFR affectant cet aéroport [VIEW]
Fréquences de communication: [VIEW]

Pistes:

Identifiant RWYQFULongueur (ft)Largeur (ft)SurfaceLDA (ft)
13200050ASPH
31200050ASPH

Coordonnées de l'aéroport

Adresse: Strathmore United States

Vue satellite de 1Q1